createdAt,value
2022-10-13T00:00:11.790Z,62.0
2022-10-13T00:02:11.703Z,61.0
2022-10-13T00:04:11.693Z,61.0
2022-10-13T00:06:15.724Z,62.0
2022-10-13T00:08:12.266Z,63.0
2022-10-13T00:10:12.566Z,63.0
2022-10-13T00:12:11.647Z,62.0
2022-10-13T00:14:13.725Z,63.0
2022-10-13T00:16:13.254Z,63.0
2022-10-13T00:18:11.834Z,63.0
2022-10-13T00:20:12.283Z,64.0
2022-10-13T00:22:11.872Z,64.0
2022-10-13T00:24:12.185Z,65.0
2022-10-13T00:26:15.231Z,64.0
2022-10-13T00:28:11.695Z,64.0
2022-10-13T00:30:11.848Z,64.0
2022-10-13T00:32:12.287Z,65.0
2022-10-13T00:34:12.385Z,64.0
2022-10-13T00:36:11.616Z,65.0
2022-10-13T00:38:12.288Z,65.0
2022-10-13T00:40:11.676Z,64.0
2022-10-13T00:42:11.678Z,64.0
2022-10-13T00:44:14.320Z,65.0
2022-10-13T00:46:12.216Z,65.0
2022-10-13T00:48:11.992Z,67.0
2022-10-13T00:50:12.111Z,65.0
2022-10-13T00:52:11.761Z,66.0
2022-10-13T00:54:14.497Z,67.0
2022-10-13T00:56:12.731Z,67.0
2022-10-13T00:58:15.860Z,67.0
2022-10-13T01:00:13.105Z,67.0
2022-10-13T01:02:12.787Z,67.0
2022-10-13T01:04:11.618Z,68.0
2022-10-13T01:06:17.059Z,68.0
2022-10-13T01:08:13.094Z,68.0
2022-10-13T01:10:13.777Z,68.0
2022-10-13T01:12:22.781Z,69.0
2022-10-13T01:14:22.261Z,69.0
2022-10-13T01:16:22.580Z,70.0
2022-10-13T01:18:20.203Z,70.0
2022-10-13T01:20:30.706Z,70.0
2022-10-13T01:22:25.603Z,70.0
2022-10-13T01:24:30.698Z,70.0
2022-10-13T01:26:30.688Z,71.0
2022-10-13T01:28:24.782Z,71.0
2022-10-13T01:30:21.040Z,71.0
2022-10-13T01:32:18.144Z,71.0
2022-10-13T01:34:20.704Z,72.0
2022-10-13T01:38:18.971Z,72.0
2022-10-13T01:40:16.328Z,72.0
2022-10-13T01:42:16.384Z,73.0
2022-10-13T01:44:26.794Z,73.0
2022-10-13T01:46:15.690Z,73.0
2022-10-13T01:48:14.797Z,73.0
2022-10-13T01:50:13.846Z,73.0
2022-10-13T01:52:14.672Z,74.0
2022-10-13T01:54:12.024Z,74.0
2022-10-13T01:56:12.478Z,74.0
2022-10-13T01:58:11.608Z,74.0
2022-10-13T02:00:16.127Z,74.0
2022-10-13T02:02:18.642Z,75.0
2022-10-13T02:04:22.107Z,75.0
2022-10-13T02:06:20.020Z,75.0
2022-10-13T02:08:18.124Z,75.0
2022-10-13T02:10:21.683Z,75.0
2022-10-13T02:12:18.183Z,75.0
2022-10-13T02:14:20.421Z,75.0
2022-10-13T02:16:12.845Z,75.0
2022-10-13T02:18:14.232Z,76.0
2022-10-13T02:20:16.640Z,76.0
2022-10-13T02:22:13.614Z,76.0
2022-10-13T02:24:12.882Z,76.0
2022-10-13T02:26:12.622Z,76.0
2022-10-13T02:28:12.588Z,77.0
2022-10-13T02:30:11.729Z,77.0
2022-10-13T02:32:11.804Z,77.0
2022-10-13T02:34:12.215Z,77.0
2022-10-13T02:36:11.786Z,77.0
2022-10-13T02:38:11.732Z,77.0
2022-10-13T02:40:11.622Z,78.0
2022-10-13T02:42:11.613Z,78.0
2022-10-13T02:44:11.678Z,78.0
2022-10-13T02:46:11.640Z,78.0
2022-10-13T02:48:11.878Z,78.0
2022-10-13T02:50:11.672Z,78.0
2022-10-13T02:52:11.616Z,78.0
2022-10-13T02:54:11.618Z,78.0
2022-10-13T02:56:11.739Z,78.0
2022-10-13T02:58:11.618Z,79.0
2022-10-13T03:00:12.088Z,79.0
2022-10-13T03:02:12.267Z,79.0
2022-10-13T03:04:11.653Z,79.0
2022-10-13T03:06:12.905Z,79.0
2022-10-13T03:08:12.547Z,79.0
2022-10-13T03:10:11.744Z,79.0
2022-10-13T03:12:12.689Z,79.0
2022-10-13T03:14:11.677Z,79.0
2022-10-13T03:16:11.737Z,79.0
2022-10-13T03:18:11.625Z,79.0
2022-10-13T03:20:11.715Z,79.0
2022-10-13T03:22:11.609Z,80.0
2022-10-13T03:24:11.800Z,80.0
2022-10-13T03:26:12.092Z,80.0
2022-10-13T03:28:11.978Z,80.0
2022-10-13T03:30:11.631Z,80.0
2022-10-13T03:32:11.698Z,80.0
2022-10-13T03:34:12.280Z,80.0
2022-10-13T03:36:15.020Z,80.0
2022-10-13T03:38:11.839Z,80.0
2022-10-13T03:40:11.624Z,81.0
2022-10-13T03:42:11.701Z,81.0
2022-10-13T03:44:11.900Z,81.0
2022-10-13T03:46:14.145Z,81.0
2022-10-13T03:48:11.827Z,81.0
2022-10-13T03:50:11.735Z,81.0
2022-10-13T03:52:11.603Z,81.0
2022-10-13T03:54:02.343Z,81.0
2022-10-13T03:56:04.664Z,82.0
2022-10-13T03:58:02.638Z,82.0
2022-10-13T04:00:03.550Z,82.0
2022-10-13T04:02:02.361Z,82.0
2022-10-13T04:04:02.970Z,82.0
2022-10-13T04:06:03.791Z,82.0
2022-10-13T04:08:03.244Z,82.0
2022-10-13T04:10:02.161Z,82.0
2022-10-13T04:12:02.387Z,82.0
2022-10-13T04:14:02.219Z,82.0
2022-10-13T04:16:04.136Z,82.0
2022-10-13T04:18:02.190Z,83.0
2022-10-13T04:20:03.109Z,83.0
2022-10-13T04:22:02.180Z,83.0
2022-10-13T04:24:04.360Z,83.0
2022-10-13T04:26:02.202Z,83.0
2022-10-13T04:28:02.829Z,83.0
2022-10-13T04:30:02.962Z,83.0
2022-10-13T04:32:02.396Z,83.0
2022-10-13T04:34:02.177Z,83.0
2022-10-13T04:36:04.453Z,83.0
2022-10-13T04:38:02.770Z,83.0
2022-10-13T04:40:02.532Z,83.0
2022-10-13T04:42:02.347Z,83.0
2022-10-13T04:44:02.334Z,83.0
2022-10-13T04:46:03.670Z,83.0
2022-10-13T04:48:02.554Z,83.0
2022-10-13T04:50:02.314Z,83.0
2022-10-13T04:52:02.180Z,84.0
2022-10-13T04:54:05.075Z,84.0
2022-10-13T04:56:05.810Z,84.0
2022-10-13T04:58:02.157Z,84.0
2022-10-13T05:00:04.217Z,84.0
2022-10-13T05:02:03.185Z,84.0
2022-10-13T05:04:04.814Z,84.0
2022-10-13T05:06:02.283Z,84.0
2022-10-13T05:08:02.229Z,84.0
2022-10-13T05:10:05.190Z,84.0
2022-10-13T05:12:02.319Z,84.0
2022-10-13T05:14:02.283Z,84.0
2022-10-13T05:16:06.525Z,84.0
2022-10-13T05:18:02.256Z,84.0
2022-10-13T05:20:02.394Z,84.0
2022-10-13T05:22:02.419Z,84.0
2022-10-13T05:24:02.277Z,84.0
2022-10-13T05:26:03.192Z,84.0
2022-10-13T05:28:02.639Z,84.0
2022-10-13T05:30:02.205Z,85.0
2022-10-13T05:32:02.479Z,85.0
2022-10-13T05:34:03.288Z,85.0
2022-10-13T05:36:05.835Z,85.0
2022-10-13T05:38:02.271Z,85.0
2022-10-13T05:40:02.388Z,85.0
2022-10-13T05:42:02.198Z,85.0
2022-10-13T05:44:06.690Z,85.0
2022-10-13T05:46:03.726Z,85.0
2022-10-13T05:48:02.148Z,85.0
2022-10-13T05:50:03.332Z,85.0
2022-10-13T05:52:07.364Z,85.0
2022-10-13T05:54:05.664Z,85.0
2022-10-13T05:56:09.116Z,85.0
2022-10-13T05:58:03.255Z,85.0
2022-10-13T06:00:07.935Z,85.0
2022-10-13T06:02:03.240Z,85.0
2022-10-13T06:04:05.705Z,85.0
2022-10-13T06:06:03.035Z,85.0
2022-10-13T06:08:03.028Z,85.0
2022-10-13T06:10:03.146Z,85.0
2022-10-13T06:12:02.397Z,85.0
2022-10-13T06:14:02.201Z,85.0
2022-10-13T06:16:02.225Z,85.0
2022-10-13T06:18:02.182Z,85.0
2022-10-13T06:20:03.869Z,86.0
2022-10-13T06:22:03.709Z,86.0
2022-10-13T06:24:02.538Z,86.0
2022-10-13T06:26:02.219Z,86.0
2022-10-13T06:28:02.331Z,86.0
2022-10-13T06:30:02.921Z,86.0
2022-10-13T06:32:02.634Z,86.0
2022-10-13T06:34:02.973Z,86.0
2022-10-13T06:36:03.630Z,86.0
2022-10-13T06:38:02.210Z,86.0
2022-10-13T06:40:02.975Z,86.0
2022-10-13T06:42:02.271Z,87.0
2022-10-13T06:44:02.498Z,86.0
2022-10-13T06:46:02.560Z,86.0
2022-10-13T06:48:02.403Z,87.0
2022-10-13T06:50:02.240Z,87.0
2022-10-13T06:52:02.342Z,87.0
2022-10-13T06:54:03.372Z,87.0
2022-10-13T06:56:05.500Z,87.0
2022-10-13T06:58:02.458Z,87.0
2022-10-13T07:00:02.335Z,87.0
2022-10-13T07:04:02.434Z,87.0
2022-10-13T07:06:03.399Z,87.0
2022-10-13T07:08:02.419Z,87.0
2022-10-13T07:10:02.975Z,87.0
2022-10-13T07:12:02.159Z,87.0
2022-10-13T07:16:04.078Z,87.0
2022-10-13T07:18:02.153Z,88.0
2022-10-13T07:20:05.047Z,88.0
2022-10-13T07:22:02.402Z,88.0
2022-10-13T07:24:03.109Z,88.0
2022-10-13T07:26:02.352Z,88.0
2022-10-13T07:28:02.212Z,88.0
2022-10-13T07:30:02.183Z,88.0
2022-10-13T07:32:02.554Z,88.0
2022-10-13T07:34:04.367Z,88.0
2022-10-13T07:36:02.220Z,88.0
2022-10-13T07:38:02.251Z,88.0
2022-10-13T07:40:02.464Z,88.0
2022-10-13T07:42:02.770Z,88.0
2022-10-13T07:44:03.209Z,88.0
2022-10-13T07:46:04.401Z,88.0
2022-10-13T07:48:02.233Z,88.0
2022-10-13T07:50:02.803Z,88.0
2022-10-13T07:52:02.844Z,88.0
2022-10-13T07:54:02.198Z,88.0
2022-10-13T07:56:04.543Z,88.0
2022-10-13T07:58:03.586Z,89.0
2022-10-13T08:00:05.656Z,89.0
2022-10-13T08:02:02.835Z,89.0
2022-10-13T08:04:03.161Z,89.0
2022-10-13T08:06:04.599Z,89.0
2022-10-13T08:08:02.213Z,89.0
2022-10-13T08:10:02.610Z,89.0
2022-10-13T08:12:02.387Z,89.0
2022-10-13T08:14:03.430Z,89.0
2022-10-13T08:16:03.554Z,89.0
2022-10-13T08:18:02.181Z,89.0
2022-10-13T08:20:02.382Z,89.0
2022-10-13T08:22:02.366Z,89.0
2022-10-13T08:24:02.577Z,89.0
2022-10-13T08:26:02.811Z,89.0
2022-10-13T08:28:02.187Z,89.0
2022-10-13T08:30:02.191Z,89.0
2022-10-13T08:32:02.202Z,90.0
2022-10-13T08:34:02.968Z,90.0
2022-10-13T08:36:02.154Z,89.0
2022-10-13T08:38:02.232Z,90.0
2022-10-13T08:40:02.863Z,90.0
2022-10-13T08:42:02.183Z,90.0
2022-10-13T08:44:41.306Z,89.0
2022-10-13T08:46:03.182Z,90.0
2022-10-13T08:48:06.023Z,90.0
2022-10-13T08:50:06.906Z,90.0
2022-10-13T08:52:05.437Z,90.0
2022-10-13T08:54:04.848Z,90.0
2022-10-13T08:56:08.006Z,90.0
2022-10-13T08:58:11.254Z,90.0
2022-10-13T09:00:02.811Z,90.0
2022-10-13T09:02:10.152Z,90.0
2022-10-13T09:04:17.077Z,90.0
2022-10-13T09:06:11.630Z,90.0
2022-10-13T09:08:04.377Z,90.0
2022-10-13T09:10:02.744Z,90.0
2022-10-13T09:12:02.439Z,90.0
2022-10-13T09:14:04.688Z,90.0
2022-10-13T09:16:02.210Z,90.0
2022-10-13T09:18:13.364Z,91.0
2022-10-13T09:20:06.361Z,91.0
2022-10-13T09:22:16.176Z,91.0
2022-10-13T09:24:07.984Z,91.0
2022-10-13T09:26:08.677Z,91.0
2022-10-13T09:28:11.382Z,91.0
2022-10-13T09:30:22.550Z,91.0
2022-10-13T09:32:15.244Z,91.0
2022-10-13T09:34:13.148Z,91.0
2022-10-13T09:36:13.024Z,91.0
2022-10-13T09:38:03.529Z,91.0
2022-10-13T09:40:13.975Z,91.0
2022-10-13T09:42:19.481Z,91.0
2022-10-13T09:44:11.686Z,91.0
2022-10-13T09:46:11.551Z,91.0
2022-10-13T09:48:06.398Z,91.0
2022-10-13T09:50:14.500Z,91.0
2022-10-13T09:52:05.957Z,91.0
2022-10-13T09:54:03.581Z,91.0
2022-10-13T09:56:19.258Z,91.0
2022-10-13T09:58:07.762Z,91.0
2022-10-13T10:00:12.414Z,91.0
2022-10-13T10:02:17.552Z,91.0
2022-10-13T10:04:07.103Z,91.0
2022-10-13T10:06:05.636Z,92.0
2022-10-13T10:08:12.914Z,91.0
2022-10-13T10:10:12.506Z,92.0
2022-10-13T10:12:04.744Z,92.0
2022-10-13T10:14:14.102Z,92.0
2022-10-13T10:16:11.679Z,92.0
2022-10-13T10:18:07.217Z,92.0
2022-10-13T10:20:20.227Z,92.0
2022-10-13T10:22:10.593Z,92.0
2022-10-13T10:24:08.174Z,92.0
2022-10-13T10:26:06.928Z,92.0
2022-10-13T10:28:18.994Z,92.0
2022-10-13T10:30:05.288Z,92.0
2022-10-13T10:32:19.797Z,92.0
2022-10-13T10:34:20.513Z,92.0
2022-10-13T10:36:06.883Z,92.0
2022-10-13T10:38:12.729Z,92.0
2022-10-13T10:40:14.827Z,92.0
2022-10-13T10:42:09.168Z,92.0
2022-10-13T10:44:04.668Z,93.0
2022-10-13T10:46:02.744Z,93.0
2022-10-13T10:48:07.091Z,93.0
2022-10-13T10:50:06.146Z,93.0
2022-10-13T10:52:07.759Z,93.0
2022-10-13T10:54:17.755Z,92.0
2022-10-13T10:56:09.165Z,92.0
2022-10-13T10:58:13.377Z,92.0
2022-10-13T11:00:09.241Z,92.0
2022-10-13T11:02:15.876Z,92.0
2022-10-13T11:04:21.238Z,92.0
2022-10-13T11:06:05.364Z,92.0
2022-10-13T11:08:02.217Z,92.0
2022-10-13T11:10:13.800Z,92.0
2022-10-13T11:12:02.160Z,92.0
2022-10-13T11:14:21.253Z,92.0
2022-10-13T11:16:21.267Z,92.0
2022-10-13T11:18:22.052Z,92.0
2022-10-13T11:20:21.267Z,92.0
2022-10-13T11:22:18.588Z,92.0
2022-10-13T11:24:02.387Z,92.0
2022-10-13T11:26:20.645Z,92.0
2022-10-13T11:28:21.378Z,92.0
2022-10-13T11:30:03.216Z,92.0
2022-10-13T11:32:04.356Z,92.0
2022-10-13T11:34:02.436Z,92.0
2022-10-13T11:36:21.219Z,92.0
2022-10-13T11:38:20.936Z,93.0
2022-10-13T11:40:15.168Z,93.0
2022-10-13T11:42:14.868Z,93.0
2022-10-13T11:44:09.203Z,93.0
2022-10-13T11:46:16.670Z,93.0
2022-10-13T11:48:21.231Z,93.0
2022-10-13T11:50:15.222Z,93.0
2022-10-13T11:52:19.196Z,93.0
2022-10-13T11:54:15.035Z,93.0
2022-10-13T11:56:02.204Z,93.0
2022-10-13T11:58:14.749Z,93.0
2022-10-13T12:00:02.414Z,93.0
2022-10-13T12:02:16.988Z,93.0
2022-10-13T12:04:14.236Z,93.0
2022-10-13T12:06:04.873Z,93.0
2022-10-13T12:08:05.810Z,93.0
2022-10-13T12:10:07.261Z,93.0
2022-10-13T12:12:07.005Z,93.0
2022-10-13T12:14:05.767Z,93.0
2022-10-13T12:16:05.955Z,93.0
2022-10-13T12:18:02.899Z,93.0
2022-10-13T12:20:21.339Z,93.0
2022-10-13T12:22:02.241Z,93.0
2022-10-13T12:24:13.031Z,93.0
2022-10-13T12:26:03.503Z,93.0
2022-10-13T12:28:02.578Z,93.0
2022-10-13T12:30:03.102Z,93.0
2022-10-13T12:32:05.556Z,93.0
2022-10-13T12:34:03.113Z,93.0
2022-10-13T12:36:13.402Z,93.0
2022-10-13T12:38:15.767Z,93.0
2022-10-13T12:40:04.065Z,93.0
2022-10-13T12:42:03.550Z,93.0
2022-10-13T12:44:05.782Z,93.0
2022-10-13T12:46:02.431Z,93.0
2022-10-13T12:48:02.265Z,93.0
2022-10-13T12:50:21.389Z,93.0
2022-10-13T12:52:10.870Z,94.0
2022-10-13T12:54:07.048Z,94.0
2022-10-13T12:56:05.136Z,94.0
2022-10-13T12:58:02.821Z,94.0
2022-10-13T13:00:02.492Z,94.0
2022-10-13T13:02:04.354Z,94.0
2022-10-13T13:04:21.241Z,94.0
2022-10-13T13:06:21.598Z,94.0
2022-10-13T13:08:04.613Z,94.0
2022-10-13T13:10:10.214Z,94.0
2022-10-13T13:12:14.675Z,94.0
2022-10-13T13:14:21.340Z,94.0
2022-10-13T13:16:14.614Z,94.0
2022-10-13T13:18:21.233Z,94.0
2022-10-13T13:20:11.953Z,94.0
2022-10-13T13:22:03.626Z,94.0
2022-10-13T13:24:04.280Z,94.0
2022-10-13T13:26:12.068Z,94.0
2022-10-13T13:28:10.389Z,94.0
2022-10-13T13:30:03.019Z,94.0
2022-10-13T13:32:02.178Z,94.0
2022-10-13T13:34:02.234Z,94.0
2022-10-13T13:36:02.221Z,94.0
2022-10-13T13:38:02.590Z,94.0
2022-10-13T13:40:03.145Z,94.0
2022-10-13T13:42:02.549Z,94.0
2022-10-13T13:44:02.380Z,94.0
2022-10-13T13:46:03.178Z,93.0
2022-10-13T13:48:02.215Z,93.0
2022-10-13T13:50:02.290Z,93.0
2022-10-13T13:52:02.243Z,93.0
2022-10-13T13:54:02.418Z,93.0
2022-10-13T13:56:02.242Z,93.0
2022-10-13T13:58:02.426Z,93.0
2022-10-13T14:00:04.447Z,93.0
2022-10-13T14:02:02.432Z,93.0
2022-10-13T14:04:02.738Z,93.0
2022-10-13T14:06:02.579Z,93.0
2022-10-13T14:08:02.244Z,93.0
2022-10-13T14:10:03.169Z,93.0
2022-10-13T14:12:02.881Z,93.0
2022-10-13T14:14:02.213Z,94.0
2022-10-13T14:16:03.813Z,94.0
2022-10-13T14:18:02.396Z,94.0
2022-10-13T14:20:03.036Z,94.0
2022-10-13T14:22:07.175Z,94.0
2022-10-13T14:24:02.795Z,94.0
2022-10-13T14:26:07.454Z,94.0
2022-10-13T14:28:02.366Z,94.0
2022-10-13T14:30:03.655Z,94.0
2022-10-13T14:32:02.493Z,94.0
2022-10-13T14:34:02.620Z,94.0
2022-10-13T14:36:04.278Z,94.0
2022-10-13T14:38:02.191Z,94.0
2022-10-13T14:40:03.088Z,95.0
2022-10-13T14:42:02.412Z,94.0
2022-10-13T14:44:02.288Z,94.0
2022-10-13T14:46:03.933Z,94.0
2022-10-13T14:48:02.286Z,94.0
2022-10-13T14:50:02.599Z,94.0
2022-10-13T14:52:02.366Z,94.0
2022-10-13T14:54:04.222Z,95.0
2022-10-13T14:56:02.795Z,95.0
2022-10-13T14:58:03.264Z,95.0
2022-10-13T15:00:02.481Z,95.0
2022-10-13T15:02:02.551Z,95.0
2022-10-13T15:04:03.429Z,95.0
2022-10-13T15:06:02.434Z,95.0
2022-10-13T15:08:02.542Z,95.0
2022-10-13T15:10:05.795Z,95.0
2022-10-13T15:12:02.243Z,96.0
2022-10-13T15:14:02.837Z,96.0
2022-10-13T15:16:03.997Z,96.0
2022-10-13T15:18:02.395Z,96.0
2022-10-13T15:20:03.400Z,96.0
2022-10-13T15:22:02.252Z,96.0
2022-10-13T15:24:02.736Z,96.0
2022-10-13T15:26:04.206Z,96.0
2022-10-13T15:28:02.391Z,96.0
2022-10-13T15:30:02.607Z,96.0
2022-10-13T15:32:09.268Z,96.0
2022-10-13T15:34:02.168Z,96.0
2022-10-13T15:36:03.122Z,96.0
2022-10-13T15:38:02.417Z,96.0
2022-10-13T15:40:02.982Z,96.0
2022-10-13T15:42:02.491Z,96.0
2022-10-13T15:44:02.179Z,95.0
2022-10-13T15:46:04.418Z,95.0
2022-10-13T15:48:02.530Z,95.0
2022-10-13T15:50:02.342Z,95.0
2022-10-13T15:52:03.554Z,95.0
2022-10-13T15:54:02.920Z,95.0
2022-10-13T15:56:02.338Z,95.0
2022-10-13T15:58:02.171Z,96.0
2022-10-13T16:00:02.313Z,96.0
2022-10-13T16:02:02.300Z,96.0
2022-10-13T16:04:02.573Z,96.0
2022-10-13T16:06:05.446Z,96.0
2022-10-13T16:08:02.184Z,96.0
2022-10-13T16:10:03.742Z,96.0
2022-10-13T16:12:02.193Z,96.0
2022-10-13T16:14:02.287Z,96.0
2022-10-13T16:16:03.398Z,96.0
2022-10-13T16:18:02.466Z,96.0
2022-10-13T16:20:02.239Z,96.0
2022-10-13T16:22:02.787Z,96.0
2022-10-13T16:24:02.202Z,96.0
2022-10-13T16:26:02.914Z,96.0
2022-10-13T16:28:02.460Z,96.0
2022-10-13T16:30:02.697Z,96.0
2022-10-13T16:32:03.145Z,96.0
2022-10-13T16:34:02.767Z,96.0
2022-10-13T16:36:03.229Z,96.0
2022-10-13T16:38:02.990Z,96.0
2022-10-13T16:40:02.392Z,96.0
2022-10-13T16:42:02.404Z,96.0
2022-10-13T16:44:02.846Z,95.0
2022-10-13T16:46:05.014Z,95.0
2022-10-13T16:48:02.177Z,94.0
2022-10-13T16:50:05.935Z,94.0
2022-10-13T16:52:02.976Z,93.0
2022-10-13T16:54:04.368Z,93.0
2022-10-13T16:56:04.878Z,93.0
2022-10-13T16:58:02.236Z,93.0
2022-10-13T17:00:03.591Z,93.0
2022-10-13T17:02:02.814Z,92.0
2022-10-13T17:04:04.204Z,93.0
2022-10-13T17:06:02.985Z,92.0
2022-10-13T17:08:02.360Z,91.0
2022-10-13T17:10:03.485Z,91.0
2022-10-13T17:12:03.374Z,91.0
2022-10-13T17:14:02.664Z,90.0
2022-10-13T17:16:03.154Z,90.0
2022-10-13T17:18:03.874Z,90.0
2022-10-13T17:20:03.964Z,90.0
2022-10-13T17:22:02.227Z,90.0
2022-10-13T17:24:02.241Z,90.0
2022-10-13T17:26:06.221Z,91.0
2022-10-13T17:28:02.408Z,89.0
2022-10-13T17:30:03.333Z,85.0
2022-10-13T17:32:02.297Z,86.0
2022-10-13T17:34:02.231Z,87.0
2022-10-13T17:36:04.483Z,85.0
2022-10-13T17:38:02.420Z,85.0
2022-10-13T17:40:02.402Z,84.0
2022-10-13T17:42:02.366Z,81.0
2022-10-13T17:44:03.104Z,89.0
2022-10-13T17:46:35.161Z,76.0
2022-10-13T17:48:02.202Z,79.0
2022-10-13T17:50:02.269Z,79.0
2022-10-13T17:52:02.481Z,76.0
2022-10-13T17:54:02.422Z,76.0
2022-10-13T17:56:03.880Z,78.0
2022-10-13T17:58:03.487Z,72.0
2022-10-13T18:00:03.648Z,76.0
2022-10-13T18:02:02.393Z,74.0
2022-10-13T18:04:04.551Z,74.0
2022-10-13T18:06:02.511Z,74.0
2022-10-13T18:08:02.173Z,72.0
2022-10-13T18:10:04.474Z,72.0
2022-10-13T18:12:02.193Z,68.0
2022-10-13T18:14:02.998Z,70.0
2022-10-13T18:16:03.440Z,69.0
2022-10-13T18:18:02.344Z,73.0
2022-10-13T18:20:02.226Z,73.0
2022-10-13T18:22:02.970Z,70.0
2022-10-13T18:24:02.918Z,70.0
2022-10-13T18:26:03.685Z,69.0
2022-10-13T18:28:02.344Z,70.0
2022-10-13T18:30:02.372Z,70.0
2022-10-13T18:32:02.273Z,70.0
2022-10-13T18:34:04.800Z,69.0
2022-10-13T18:36:12.321Z,68.0
2022-10-13T18:38:02.741Z,67.0
2022-10-13T18:40:02.470Z,67.0
2022-10-13T18:42:02.232Z,67.0
2022-10-13T18:44:03.178Z,65.0
2022-10-13T18:46:04.412Z,66.0
2022-10-13T18:48:02.286Z,66.0
2022-10-13T18:50:02.241Z,67.0
2022-10-13T18:52:02.722Z,69.0
2022-10-13T18:54:02.201Z,68.0
2022-10-13T18:56:04.841Z,67.0
2022-10-13T18:58:02.590Z,67.0
2022-10-13T19:00:02.334Z,66.0
2022-10-13T19:02:02.196Z,67.0
2022-10-13T19:04:03.699Z,68.0
2022-10-13T19:06:05.652Z,69.0
2022-10-13T19:08:02.259Z,70.0
2022-10-13T19:10:03.494Z,69.0
2022-10-13T19:12:02.184Z,69.0
2022-10-13T19:14:03.791Z,68.0
2022-10-13T19:16:03.115Z,69.0
2022-10-13T19:18:02.477Z,69.0
2022-10-13T19:20:02.323Z,69.0
2022-10-13T19:22:02.574Z,68.0
2022-10-13T19:24:02.405Z,69.0
2022-10-13T19:26:09.003Z,69.0
2022-10-13T19:28:02.367Z,69.0
2022-10-13T19:30:02.409Z,69.0
2022-10-13T19:32:02.203Z,70.0
2022-10-13T19:34:02.870Z,69.0
2022-10-13T19:36:02.211Z,68.0
2022-10-13T19:38:02.314Z,67.0
2022-10-13T19:40:03.829Z,67.0
2022-10-13T19:42:02.366Z,66.0
2022-10-13T19:44:02.407Z,65.0
2022-10-13T19:46:05.698Z,66.0
2022-10-13T19:48:02.948Z,65.0
2022-10-13T19:50:02.277Z,63.0
2022-10-13T19:52:02.367Z,63.0
2022-10-13T19:54:02.803Z,62.0
2022-10-13T19:56:02.979Z,62.0
2022-10-13T19:58:02.938Z,63.0
2022-10-13T20:00:02.249Z,61.0
2022-10-13T20:02:02.711Z,61.0
2022-10-13T20:04:02.567Z,62.0
2022-10-13T20:06:05.109Z,62.0
2022-10-13T20:08:02.165Z,63.0
2022-10-13T20:10:02.435Z,62.0
2022-10-13T20:12:02.786Z,62.0
2022-10-13T20:14:02.250Z,62.0
2022-10-13T20:16:07.231Z,62.0
2022-10-13T20:18:02.182Z,62.0
2022-10-13T20:20:02.276Z,63.0
2022-10-13T20:22:02.902Z,63.0
2022-10-13T20:24:02.221Z,62.0
2022-10-13T20:26:03.734Z,63.0
2022-10-13T20:28:02.248Z,59.0
2022-10-13T20:30:02.287Z,56.0
2022-10-13T20:32:02.381Z,55.0
2022-10-13T20:34:03.248Z,52.0
2022-10-13T20:36:04.375Z,52.0
2022-10-13T20:38:02.235Z,52.0
2022-10-13T20:40:03.316Z,52.0
2022-10-13T20:42:02.732Z,54.0
2022-10-13T20:44:02.912Z,53.0
2022-10-13T20:46:04.591Z,56.0
2022-10-13T20:48:02.190Z,52.0
2022-10-13T20:50:03.498Z,51.0
2022-10-13T20:52:02.655Z,51.0
2022-10-13T20:54:02.291Z,50.0
2022-10-13T20:56:04.478Z,51.0
2022-10-13T20:58:02.363Z,52.0
2022-10-13T21:00:02.291Z,51.0
2022-10-13T21:02:02.210Z,51.0
2022-10-13T21:04:03.328Z,51.0
2022-10-13T21:06:04.596Z,51.0
2022-10-13T21:08:02.198Z,50.0
2022-10-13T21:10:02.387Z,50.0
2022-10-13T21:12:02.189Z,50.0
2022-10-13T21:14:05.907Z,50.0
2022-10-13T21:16:07.781Z,50.0
2022-10-13T21:18:02.783Z,49.0
2022-10-13T21:20:02.292Z,49.0
2022-10-13T21:22:02.377Z,48.0
2022-10-13T21:24:05.164Z,49.0
2022-10-13T21:26:03.385Z,48.0
2022-10-13T21:28:02.454Z,48.0
2022-10-13T21:30:02.214Z,49.0
2022-10-13T21:32:02.167Z,49.0
2022-10-13T21:34:02.750Z,50.0
2022-10-13T21:36:05.593Z,50.0
2022-10-13T21:38:02.233Z,50.0
2022-10-13T21:40:02.583Z,49.0
2022-10-13T21:42:02.131Z,52.0
2022-10-13T21:44:02.727Z,51.0
2022-10-13T21:46:08.715Z,51.0
2022-10-13T21:48:02.729Z,51.0
2022-10-13T21:50:04.245Z,48.0
2022-10-13T21:52:02.404Z,49.0
2022-10-13T21:54:04.321Z,48.0
2022-10-13T21:56:06.435Z,46.0
2022-10-13T21:58:05.229Z,46.0
2022-10-13T22:00:03.480Z,47.0
2022-10-13T22:02:02.254Z,45.0
2022-10-13T22:04:02.986Z,45.0
2022-10-13T22:06:05.899Z,46.0
2022-10-13T22:08:02.274Z,47.0
2022-10-13T22:10:02.525Z,47.0
2022-10-13T22:12:02.644Z,49.0
2022-10-13T22:14:03.320Z,50.0
2022-10-13T22:16:02.991Z,47.0
2022-10-13T22:18:02.991Z,48.0
2022-10-13T22:20:02.848Z,50.0
2022-10-13T22:22:02.353Z,47.0
2022-10-13T22:24:04.763Z,49.0
2022-10-13T22:26:02.222Z,47.0
2022-10-13T22:28:02.353Z,46.0
2022-10-13T22:30:02.271Z,50.0
2022-10-13T22:32:02.291Z,50.0
2022-10-13T22:34:03.734Z,50.0
2022-10-13T22:36:06.803Z,47.0
2022-10-13T22:38:03.381Z,48.0
2022-10-13T22:40:02.505Z,47.0
2022-10-13T22:42:02.185Z,49.0
2022-10-13T22:44:02.559Z,50.0
2022-10-13T22:46:02.467Z,48.0
2022-10-13T22:48:02.213Z,48.0
2022-10-13T22:50:02.375Z,47.0
2022-10-13T22:52:02.232Z,48.0
2022-10-13T22:54:03.648Z,50.0
2022-10-13T22:56:07.059Z,50.0
2022-10-13T22:58:02.545Z,50.0
2022-10-13T23:00:02.938Z,50.0
2022-10-13T23:02:02.222Z,48.0
2022-10-13T23:04:02.365Z,48.0
2022-10-13T23:06:02.744Z,51.0
2022-10-13T23:08:02.225Z,52.0
2022-10-13T23:10:02.543Z,48.0
2022-10-13T23:12:02.250Z,49.0
2022-10-13T23:14:03.532Z,50.0
2022-10-13T23:16:03.682Z,49.0
2022-10-13T23:18:02.173Z,48.0
2022-10-13T23:20:02.678Z,48.0
2022-10-13T23:22:02.590Z,49.0
2022-10-13T23:24:05.456Z,46.0
2022-10-13T23:26:04.515Z,49.0
2022-10-13T23:28:03.868Z,52.0
2022-10-13T23:30:02.783Z,47.0
2022-10-13T23:32:06.254Z,49.0
2022-10-13T23:34:03.013Z,48.0
2022-10-13T23:36:03.617Z,49.0
2022-10-13T23:38:02.739Z,49.0
2022-10-13T23:40:02.293Z,48.0
2022-10-13T23:42:02.177Z,48.0
2022-10-13T23:44:03.239Z,48.0
2022-10-13T23:46:02.759Z,49.0
2022-10-13T23:48:02.175Z,50.0
2022-10-13T23:50:02.261Z,49.0
2022-10-13T23:52:05.141Z,51.0
2022-10-13T23:54:02.202Z,50.0
2022-10-13T23:56:03.421Z,49.0
2022-10-13T23:58:02.368Z,50.0
